Time;durP1;ratioP1;P1;durP2;ratioP2;P2;SDS_P1;SDS_P2;PMS_P1;PMS_P2;Temp;Humidity;BMP_temperature;BMP_pressure;BME280_temperature;BME280_humidity;BME280_pressure;Samples;Min_cycle;Max_cycle;Signal;HPM_P1;HPM_P2
2023/02/14 00:00:44;;;;;;;32.22;18.67;;;;;;;0.85;55.34;95219.56;4978291;28;20152;-73
2023/02/14 00:03:09;;;;;;;30.17;19.40;;;;;;;0.67;55.58;95212.50;4978885;28;20030;-74
2023/02/14 00:05:35;;;;;;;26.65;18.23;;;;;;;0.69;55.54;95202.63;4978292;28;20499;-74
2023/02/14 00:08:00;;;;;;;29.08;19.80;;;;;;;0.78;55.46;95220.47;4976502;28;20076;-73
2023/02/14 00:10:25;;;;;;;28.52;19.55;;;;;;;0.58;55.60;95192.88;4978182;28;20046;-73
2023/02/14 00:12:51;;;;;;;29.35;21.08;;;;;;;0.59;56.02;95218.03;4977973;28;20493;-72
2023/02/14 00:15:22;;;;;;;30.45;18.85;;;;;;;0.39;56.29;95184.22;4981999;28;20075;-72
2023/02/14 00:17:59;;;;;;;32.20;19.33;;;;;;;0.54;56.27;95210.03;4976371;28;20053;-73
2023/02/14 00:20:27;;;;;;;37.00;23.15;;;;;;;0.41;56.89;95216.19;4977631;28;20822;-72
2023/02/14 00:22:52;;;;;;;32.97;20.00;;;;;;;0.31;57.22;95231.56;4978710;28;20141;-73
2023/02/14 00:25:18;;;;;;;30.70;19.73;;;;;;;0.35;57.04;95228.31;4979193;28;20485;-73
2023/02/14 00:27:43;;;;;;;31.42;20.13;;;;;;;0.22;57.62;95217.16;4979611;28;20030;-73
2023/02/14 00:30:11;;;;;;;30.75;20.73;;;;;;;0.51;57.20;95219.09;4977009;28;20038;-73
2023/02/14 00:32:38;;;;;;;32.05;20.23;;;;;;;0.37;57.18;95207.16;4978938;28;20053;-74
2023/02/14 00:35:04;;;;;;;31.17;19.38;;;;;;;0.49;57.39;95213.31;4977144;28;20038;-72
2023/02/14 00:37:29;;;;;;;30.58;21.42;;;;;;;0.53;56.93;95211.06;4979495;28;20105;-73
2023/02/14 00:39:55;;;;;;;30.58;21.15;;;;;;;0.26;57.58;95202.63;4972272;28;20601;-75
2023/02/14 00:42:20;;;;;;;31.77;22.30;;;;;;;0.02;58.35;95196.38;4978283;28;20053;-74
2023/02/14 00:44:45;;;;;;;33.88;20.90;;;;;;;0.24;58.41;95230.84;4976783;28;20034;-73
2023/02/14 00:47:11;;;;;;;30.92;20.30;;;;;;;0.38;58.08;95237.56;4980046;28;20043;-72
2023/02/14 00:49:36;;;;;;;32.45;18.80;;;;;;;0.27;57.58;95199.00;4976194;28;20034;-73
2023/02/14 00:52:01;;;;;;;30.48;20.02;;;;;;;0.31;57.91;95227.13;4979503;28;20039;-73
2023/02/14 00:54:27;;;;;;;30.85;21.02;;;;;;;0.11;58.29;95223.88;4973957;28;21015;-74
2023/02/14 00:56:52;;;;;;;30.77;20.15;;;;;;;0.11;58.52;95210.00;4978093;28;20433;-72
2023/02/14 00:59:18;;;;;;;31.23;21.35;;;;;;;0.07;58.19;95199.16;4976774;28;20034;-73
2023/02/14 01:01:43;;;;;;;38.85;23.13;;;;;;;0.04;58.27;95183.09;4977419;28;20512;-73
2023/02/14 01:04:08;;;;;;;32.38;21.02;;;;;;;0.34;57.91;95197.13;4978914;28;20014;-76
2023/02/14 01:06:34;;;;;;;31.02;20.55;;;;;;;0.21;57.84;95190.19;4976862;28;20029;-74
2023/02/14 01:08:59;;;;;;;33.97;22.05;;;;;;;0.23;57.93;95203.88;4977521;28;20030;-74
2023/02/14 01:11:25;;;;;;;29.33;19.92;;;;;;;0.09;58.23;95199.78;4978317;28;20034;-74
2023/02/14 01:13:54;;;;;;;31.98;22.20;;;;;;;0.03;58.49;95184.91;4976831;28;20042;-73
2023/02/14 01:16:21;;;;;;;34.60;21.38;;;;;;;0.18;58.20;95189.81;4971959;28;20644;-74
2023/02/14 01:18:48;;;;;;;34.85;23.02;;;;;;;0.22;57.74;95180.53;4975527;28;20560;-74
2023/02/14 01:21:33;;;;;;;30.15;20.83;;;;;;;0.33;57.74;95191.09;4977550;28;20038;-74
2023/02/14 01:24:01;;;;;;;33.92;21.48;;;;;;;0.29;57.36;95173.44;4977336;28;20069;-75
2023/02/14 01:26:29;;;;;;;31.83;21.42;;;;;;;0.29;57.71;95168.19;4979179;28;20053;-73
2023/02/14 01:28:55;;;;;;;34.45;22.20;;;;;;;0.47;56.97;95162.97;4977715;28;20044;-73
2023/02/14 01:31:26;;;;;;;33.72;21.35;;;;;;;0.37;56.62;95146.97;4978278;28;20031;-73
2023/02/14 01:33:52;;;;;;;35.70;23.08;;;;;;;0.71;56.37;95185.69;4978202;28;20334;-74
2023/02/14 01:36:30;;;;;;;34.47;21.33;;;;;;;0.58;56.23;95180.59;4976582;28;20049;-74
2023/02/14 01:38:57;;;;;;;40.75;23.52;;;;;;;0.42;56.17;95152.34;4978908;28;20042;-73
2023/02/14 01:41:25;;;;;;;34.67;22.77;;;;;;;0.51;56.58;95174.59;4975988;28;20034;-74
2023/02/14 01:44:02;;;;;;;36.15;22.63;;;;;;;0.39;56.93;95155.41;4974747;28;20134;-74
2023/02/14 01:46:31;;;;;;;32.15;22.13;;;;;;;0.05;56.81;95096.59;4977692;28;20125;-72
2023/02/14 01:49:32;;;;;;;34.42;23.27;;;;;;;0.39;56.93;95159.84;4981040;28;20045;-73
2023/02/14 01:52:07;;;;;;;35.30;23.20;;;;;;;0.52;56.57;95150.03;4957541;28;20041;-75
2023/02/14 01:54:37;;;;;;;37.25;23.92;;;;;;;0.40;56.59;95136.06;4977207;28;20022;-73
2023/02/14 01:57:07;;;;;;;34.83;22.48;;;;;;;0.18;56.32;95085.97;4978719;28;20597;-75
2023/02/14 01:59:42;;;;;;;31.15;21.60;;;;;;;0.23;57.00;95140.25;4977204;28;20418;-74
2023/02/14 02:02:08;;;;;;;35.05;22.45;;;;;;;0.27;57.05;95154.50;4976887;28;20041;-73
2023/02/14 02:04:37;;;;;;;34.75;21.60;;;;;;;0.30;57.13;95151.47;4977826;28;20567;-73
2023/02/14 02:07:11;;;;;;;37.05;23.42;;;;;;;0.09;57.60;95144.84;4977104;28;20045;-74
2023/02/14 02:09:48;;;;;;;37.70;23.95;;;;;;;0.16;57.71;95152.59;4973047;28;20394;-75
2023/02/14 02:12:13;;;;;;;36.03;22.20;;;;;;;0.18;57.69;95151.38;4977146;28;20565;-74
2023/02/14 02:14:39;;;;;;;35.63;22.25;;;;;;;0.06;57.34;95105.19;4981294;28;20500;-74
2023/02/14 02:17:32;;;;;;;37.00;24.13;;;;;;;0.27;57.72;95152.69;4975246;28;20057;-75
2023/02/14 02:20:17;;;;;;;40.83;24.73;;;;;;;0.23;57.62;95150.72;4976726;28;20053;-74
2023/02/14 02:22:54;;;;;;;38.97;24.63;;;;;;;0.25;57.51;95153.94;4980043;28;20038;-73
2023/02/14 02:25:44;;;;;;;37.25;22.73;;;;;;;0.31;57.45;95153.88;4980505;28;20031;-74
2023/02/14 02:28:12;;;;;;;40.38;23.77;;;;;;;0.51;56.71;95143.19;4979892;28;20568;-73
2023/02/14 02:30:53;;;;;;;32.83;21.02;;;;;;;0.64;56.51;95137.03;4980391;28;20034;-76
2023/02/14 02:33:40;;;;;;;35.72;20.92;;;;;;;0.68;55.98;95138.19;4978887;28;20085;-75
2023/02/14 02:36:11;;;;;;;30.98;21.13;;;;;;;0.87;55.76;95120.63;4982229;28;20503;-76
2023/02/14 02:38:46;;;;;;;32.53;20.23;;;;;;;0.74;55.73;95111.91;4978736;28;20073;-74
2023/02/14 02:41:36;;;;;;;34.30;20.70;;;;;;;0.59;55.80;95098.41;4977815;28;20569;-76
2023/02/14 02:44:20;;;;;;;32.83;22.08;;;;;;;0.61;55.91;95106.03;4970395;28;20058;-74
2023/02/14 02:47:00;;;;;;;29.42;18.90;;;;;;;0.53;55.84;95103.72;4986185;28;20149;-75
2023/02/14 02:55:24;;;;;;;30.48;18.13;;;;;;;0.38;56.53;95100.66;4980780;28;20042;-75
2023/02/14 02:57:52;;;;;;;31.15;19.00;;;;;;;0.29;56.71;95097.53;4979380;28;20471;-73
2023/02/14 03:00:20;;;;;;;28.48;18.10;;;;;;;0.16;56.99;95103.69;4980476;28;20049;-73
2023/02/14 03:05:39;;;;;;;27.23;17.50;;;;;;;0.25;56.31;95064.97;4980136;28;20462;-75
2023/02/14 03:08:05;;;;;;;33.72;18.58;;;;;;;0.17;56.59;95079.13;4978985;28;20042;-74
2023/02/14 03:10:34;;;;;;;29.55;17.65;;;;;;;0.31;56.50;95105.94;4978913;28;20034;-74
2023/02/14 03:13:32;;;;;;;31.42;18.10;;;;;;;0.10;57.12;95116.84;4980177;28;20034;-72
2023/02/14 03:16:20;;;;;;;31.10;18.00;;;;;;;0.12;57.43;95109.56;4978952;28;20050;-73
2023/02/14 03:18:49;;;;;;;29.92;18.23;;;;;;;0.09;57.31;95112.63;4970290;28;20034;-74
2023/02/14 03:21:32;;;;;;;29.95;19.27;;;;;;;0.24;57.04;95107.84;4977796;28;20494;-74
2023/02/14 03:24:27;;;;;;;29.02;18.08;;;;;;;0.31;56.49;95100.72;4977026;28;20525;-74
2023/02/14 03:27:18;;;;;;;30.55;19.33;;;;;;;0.15;56.52;95056.84;4967544;28;20045;-74
2023/02/14 03:30:09;;;;;;;33.38;19.63;;;;;;;0.45;56.18;95085.69;4971572;28;20596;-73
2023/02/14 03:32:59;;;;;;;33.72;18.45;;;;;;;0.32;56.04;95066.50;4978027;28;20046;-73
2023/02/14 03:35:44;;;;;;;27.77;17.77;;;;;;;0.18;56.53;95072.09;4980521;28;20629;-74
2023/02/14 03:38:48;;;;;;;34.85;18.55;;;;;;;0.03;56.79;95058.56;4978884;28;20062;-73
2023/02/14 03:41:21;;;;;;;27.80;17.63;;;;;;;-0.09;56.69;95040.97;4975258;28;20306;-72
2023/02/14 03:43:58;;;;;;;29.02;18.25;;;;;;;0.05;57.19;95082.69;4974425;28;20038;-75
2023/02/14 03:46:26;;;;;;;33.67;19.55;;;;;;;-0.19;57.44;95069.41;4981106;28;20040;-73
2023/02/14 03:48:55;;;;;;;28.10;18.05;;;;;;;-0.24;56.93;95042.34;4980664;28;20017;-75
2023/02/14 03:51:22;;;;;;;27.67;17.40;;;;;;;-0.16;57.37;95078.66;4976341;28;20122;-75
2023/02/14 03:53:53;;;;;;;26.80;17.45;;;;;;;-0.19;57.66;95085.09;4976532;28;20430;-74
2023/02/14 03:56:40;;;;;;;31.25;18.77;;;;;;;-0.13;57.45;95079.03;4979321;28;20026;-73
2023/02/14 03:59:12;;;;;;;28.02;17.85;;;;;;;-0.23;57.73;95047.34;4979532;28;20027;-74
2023/02/14 04:01:45;;;;;;;25.75;17.02;;;;;;;0.03;56.93;95050.72;4980671;28;20050;-73
2023/02/14 04:04:13;;;;;;;28.63;18.48;;;;;;;0.06;56.53;95045.03;4978478;28;20465;-73
2023/02/14 04:06:39;;;;;;;27.15;17.33;;;;;;;-0.16;56.81;95021.13;4980922;28;20584;-74
2023/02/14 04:09:04;;;;;;;30.20;17.85;;;;;;;0.01;56.93;95055.38;4978811;28;20326;-74
2023/02/14 04:11:33;;;;;;;30.85;17.80;;;;;;;-0.12;56.44;95015.25;4980427;28;20054;-75
2023/02/14 04:13:59;;;;;;;25.77;15.50;;;;;;;-0.07;56.41;95044.16;4975960;28;20057;-72
2023/02/14 04:16:25;;;;;;;29.40;18.75;;;;;;;-0.23;57.23;95041.31;4980674;28;20276;-75
2023/02/14 04:21:54;;;;;;;30.05;16.58;;;;;;;-0.12;57.07;95051.06;4940104;28;20039;-73
2023/02/14 04:24:19;;;;;;;27.92;17.88;;;;;;;-0.17;56.97;95062.16;4939235;28;20562;-73
2023/02/14 04:27:08;;;;;;;31.35;18.58;;;;;;;-0.32;57.45;95038.19;4956312;28;20454;-73
2023/02/14 04:29:41;;;;;;;29.88;16.52;;;;;;;-0.18;57.40;95059.75;4978139;28;20127;-74
2023/02/14 04:32:09;;;;;;;25.15;16.15;;;;;;;-0.18;57.25;95055.34;4975658;28;20042;-73
2023/02/14 04:34:36;;;;;;;24.20;16.20;;;;;;;-0.17;57.07;95051.72;4978131;28;20041;-74
2023/02/14 04:37:02;;;;;;;27.27;16.30;;;;;;;-0.16;57.07;95053.31;4969631;28;20022;-73
2023/02/14 04:39:28;;;;;;;28.13;17.02;;;;;;;-0.74;57.70;95010.22;4978900;28;20054;-75
2023/02/14 04:41:53;;;;;;;26.38;15.60;;;;;;;-0.66;57.81;95020.38;4979273;28;20356;-74
2023/02/14 04:44:19;;;;;;;30.27;18.50;;;;;;;-0.33;57.58;95049.63;4976560;28;20042;-74
2023/02/14 04:46:44;;;;;;;29.67;18.08;;;;;;;-0.30;57.44;95025.69;4976306;28;20038;-76
2023/02/14 04:49:09;;;;;;;31.77;19.38;;;;;;;-0.15;56.99;95022.75;4978085;28;20117;-73
2023/02/14 04:51:35;;;;;;;29.08;16.55;;;;;;;-0.17;56.97;95030.00;4976288;28;20434;-74
2023/02/14 04:54:00;;;;;;;30.33;17.42;;;;;;;-0.28;57.35;95026.25;4978809;28;20061;-74
2023/02/14 04:56:26;;;;;;;33.28;18.85;;;;;;;-0.20;57.00;95010.31;4974996;28;20450;-76
2023/02/14 04:58:52;;;;;;;26.95;17.55;;;;;;;-0.22;56.73;95008.91;4976935;28;20075;-75
2023/02/14 05:01:17;;;;;;;27.73;18.80;;;;;;;-0.17;56.68;95015.09;4975568;28;20081;-73
2023/02/14 05:03:43;;;;;;;27.63;17.20;;;;;;;-0.02;56.43;95027.03;4977389;28;20018;-74
2023/02/14 05:06:08;;;;;;;23.55;15.38;;;;;;;0.03;56.30;95032.41;4978318;28;20442;-74
2023/02/14 05:08:33;;;;;;;26.88;17.40;;;;;;;0.07;55.74;95030.94;4977928;28;20192;-75
2023/02/14 05:10:59;;;;;;;27.40;17.13;;;;;;;0.00;55.96;95036.25;4977636;28;20065;-73
2023/02/14 05:13:24;;;;;;;26.33;16.48;;;;;;;-0.10;55.93;95005.38;4978445;28;20043;-73
2023/02/14 05:15:49;;;;;;;32.50;19.65;;;;;;;-0.02;56.11;95035.66;4976392;28;20077;-72
2023/02/14 05:18:15;;;;;;;30.58;19.42;;;;;;;-0.12;56.13;95022.28;4978581;28;20141;-76
2023/02/14 05:20:40;;;;;;;24.77;16.27;;;;;;;-0.28;56.22;95007.97;4977072;28;20042;-73
2023/02/14 05:23:12;;;;;;;24.80;15.30;;;;;;;-0.22;56.66;95038.47;4976578;28;20031;-75
2023/02/14 05:25:38;;;;;;;27.63;17.15;;;;;;;-0.17;56.38;95022.94;4977387;28;20046;-73
2023/02/14 05:28:04;;;;;;;29.92;16.75;;;;;;;-0.22;56.71;95022.78;4979857;28;20023;-73
2023/02/14 05:30:29;;;;;;;26.35;16.50;;;;;;;-0.30;56.49;94994.31;4975526;28;20033;-74
2023/02/14 05:32:54;;;;;;;25.40;16.58;;;;;;;-0.23;56.92;95028.22;4976673;28;20035;-76
2023/02/14 05:35:20;;;;;;;25.45;16.00;;;;;;;-0.31;56.71;95016.25;4978588;28;20034;-73
2023/02/14 05:37:45;;;;;;;24.33;16.70;;;;;;;-0.20;56.48;95005.09;4980125;28;20329;-73
2023/02/14 05:40:15;;;;;;;24.70;16.63;;;;;;;-0.08;56.58;95029.47;4975339;28;20066;-73
2023/02/14 05:42:41;;;;;;;23.42;16.25;;;;;;;-0.13;56.50;95002.38;4978639;28;20260;-74
2023/02/14 05:45:06;;;;;;;24.42;16.38;;;;;;;0.05;56.48;95023.34;4982162;28;20394;-73
2023/02/14 05:47:32;;;;;;;25.95;16.67;;;;;;;-0.03;56.23;95004.50;4977981;28;20129;-74
2023/02/14 05:49:57;;;;;;;22.40;15.63;;;;;;;-0.03;56.57;95025.41;4976099;28;20129;-74
2023/02/14 05:52:23;;;;;;;22.65;17.15;;;;;;;-0.08;56.49;95007.75;4979620;28;20498;-73
2023/02/14 05:54:48;;;;;;;26.35;17.77;;;;;;;-0.12;56.31;94986.47;4974104;28;20124;-74
2023/02/14 05:57:14;;;;;;;32.42;19.13;;;;;;;-0.01;56.13;94997.25;4977407;28;20084;-75
2023/02/14 05:59:39;;;;;;;31.88;18.05;;;;;;;-0.02;56.22;95016.56;4976195;28;20041;-74
2023/02/14 06:02:04;;;;;;;27.23;16.33;;;;;;;-0.23;56.24;94973.31;4975678;28;20482;-74
2023/02/14 06:04:30;;;;;;;22.02;15.52;;;;;;;0.04;56.22;95008.66;4974715;28;20075;-73
2023/02/14 06:06:55;;;;;;;26.55;17.70;;;;;;;0.15;55.65;94996.66;4974987;28;20390;-73
2023/02/14 06:09:20;;;;;;;27.00;17.58;;;;;;;0.06;55.42;94966.56;4974874;28;20030;-75
2023/02/14 06:11:46;;;;;;;26.17;17.35;;;;;;;0.43;55.25;95030.94;4977825;28;20026;-75
2023/02/14 06:14:11;;;;;;;26.50;16.50;;;;;;;0.18;55.04;94986.56;4977819;28;20074;-76
2023/02/14 06:16:36;;;;;;;25.63;17.42;;;;;;;0.57;55.16;95037.59;4974422;28;20430;-74
2023/02/14 06:19:02;;;;;;;26.95;17.65;;;;;;;0.50;54.86;95018.53;4976354;28;20510;-74
2023/02/14 06:21:27;;;;;;;27.90;18.23;;;;;;;0.41;55.28;95017.25;4976231;28;20391;-73
2023/02/14 06:23:53;;;;;;;29.38;19.67;;;;;;;0.35;55.85;95036.44;4972948;28;20525;-74
2023/02/14 06:26:18;;;;;;;32.05;19.55;;;;;;;0.39;55.64;95035.03;4971202;28;20598;-73
2023/02/14 06:28:43;;;;;;;27.70;18.73;;;;;;;0.08;55.97;94995.94;4975579;28;20454;-75
2023/02/14 06:31:16;;;;;;;33.20;18.35;;;;;;;0.23;56.14;95022.53;4974637;28;20030;-76
2023/02/14 06:33:41;;;;;;;35.35;20.00;;;;;;;0.30;56.40;95031.09;4977166;28;20032;-76
2023/02/14 06:36:07;;;;;;;29.00;19.08;;;;;;;0.18;56.28;94997.00;4977501;28;20031;-75
2023/02/14 06:38:32;;;;;;;29.40;18.35;;;;;;;0.36;56.46;95020.53;4975366;28;20030;-76
2023/02/14 06:41:03;;;;;;;27.05;18.63;;;;;;;0.50;56.37;95030.84;4969825;28;20054;-73
2023/02/14 06:43:29;;;;;;;24.85;16.98;;;;;;;0.34;56.52;95021.78;4972767;28;20046;-74
2023/02/14 06:45:54;;;;;;;26.83;17.35;;;;;;;0.30;56.75;95041.56;4975680;28;20474;-74
2023/02/14 06:48:19;;;;;;;24.48;16.02;;;;;;;0.26;56.93;95022.06;4974523;28;20400;-74
2023/02/14 06:50:46;;;;;;;28.58;18.25;;;;;;;0.09;57.46;95024.50;4974724;28;20153;-73
2023/02/14 06:53:11;;;;;;;25.25;17.42;;;;;;;0.16;57.69;95019.16;4965001;28;20506;-76
2023/02/14 06:55:37;;;;;;;26.50;15.85;;;;;;;0.02;57.41;94987.13;4977023;28;20555;-74
2023/02/14 06:58:02;;;;;;;25.20;15.77;;;;;;;0.27;57.02;95007.97;4969379;28;20034;-74
2023/02/14 07:00:28;;;;;;;25.58;16.95;;;;;;;0.34;57.11;95009.50;4976408;28;20064;-73
2023/02/14 07:02:53;;;;;;;24.38;15.98;;;;;;;0.38;57.36;95009.84;4977496;28;20229;-74
2023/02/14 07:05:19;;;;;;;26.02;16.73;;;;;;;0.46;57.05;95004.31;4976136;28;20127;-74
2023/02/14 07:07:45;;;;;;;23.35;15.30;;;;;;;0.23;57.62;94988.50;4979522;28;20062;-74
2023/02/14 07:10:10;;;;;;;25.10;16.10;;;;;;;0.41;57.82;95012.03;4980878;28;20587;-74
2023/02/14 07:12:38;;;;;;;28.40;17.17;;;;;;;0.44;57.88;95001.13;4977137;28;20038;-75
2023/02/14 07:15:07;;;;;;;24.40;16.00;;;;;;;0.34;58.15;94991.19;4976420;28;20076;-75
2023/02/14 07:17:33;;;;;;;26.73;15.63;;;;;;;0.40;57.96;94996.56;4978888;28;20037;-75
2023/02/14 07:19:58;;;;;;;25.10;16.10;;;;;;;0.40;57.95;94997.34;4976901;28;20411;-74
2023/02/14 07:22:24;;;;;;;26.20;16.08;;;;;;;0.46;57.90;95025.25;4977465;28;20062;-72
2023/02/14 07:24:49;;;;;;;21.95;15.93;;;;;;;0.28;58.35;94988.66;4977431;28;20034;-75
2023/02/14 07:27:14;;;;;;;24.25;16.00;;;;;;;0.52;58.31;95013.91;4978715;28;20398;-73
2023/02/14 07:29:40;;;;;;;25.88;17.30;;;;;;;0.63;58.24;95022.84;4978221;28;20073;-75
2023/02/14 07:32:05;;;;;;;26.90;18.80;;;;;;;0.54;58.47;95011.88;4976021;28;20041;-75
2023/02/14 07:34:31;;;;;;;29.20;17.17;;;;;;;0.62;58.39;95011.56;4978607;28;20038;-74
2023/02/14 07:36:57;;;;;;;24.90;16.33;;;;;;;0.56;58.81;95027.34;4975433;28;20037;-74
2023/02/14 07:39:22;;;;;;;23.30;14.85;;;;;;;0.50;58.86;95005.47;4974756;28;20042;-74
2023/02/14 07:41:48;;;;;;;22.77;15.07;;;;;;;0.57;58.99;95013.25;4972903;28;20042;-75
2023/02/14 07:44:13;;;;;;;22.58;15.48;;;;;;;0.71;58.94;95025.13;4975644;28;20038;-73
2023/02/14 07:46:38;;;;;;;22.33;14.95;;;;;;;0.78;58.66;95018.81;4977511;28;20113;-75
2023/02/14 07:49:04;;;;;;;26.45;15.57;;;;;;;0.74;58.62;95001.91;4978969;28;20058;-74
2023/02/14 07:51:29;;;;;;;25.70;15.00;;;;;;;0.71;58.22;94999.75;4975941;28;20053;-75
2023/02/14 07:53:55;;;;;;;23.55;16.23;;;;;;;0.69;58.22;94982.69;4975749;28;20138;-73
2023/02/14 07:56:20;;;;;;;26.33;14.70;;;;;;;1.01;57.90;95023.31;4972595;28;20035;-74
2023/02/14 07:58:48;;;;;;;26.15;16.15;;;;;;;1.18;57.56;95039.97;4973185;28;20161;-73
2023/02/14 08:01:14;;;;;;;23.77;14.10;;;;;;;1.05;57.68;95023.66;4976862;28;20032;-75
2023/02/14 08:03:40;;;;;;;21.83;14.55;;;;;;;0.54;58.09;94961.34;4976508;28;20089;-73
2023/02/14 08:06:05;;;;;;;22.15;13.93;;;;;;;0.87;58.59;95048.09;4975986;28;20439;-75
2023/02/14 08:08:31;;;;;;;23.92;14.20;;;;;;;0.85;58.83;95044.09;4977092;28;20301;-73
2023/02/14 08:10:57;;;;;;;21.35;14.05;;;;;;;0.92;58.82;95050.03;4974064;28;20038;-74
2023/02/14 08:13:22;;;;;;;19.83;12.98;;;;;;;1.07;58.29;95043.38;4974180;28;20460;-75
2023/02/14 08:16:03;;;;;;;23.25;14.25;;;;;;;1.01;58.38;95032.97;4974786;28;20038;-73
2023/02/14 08:18:30;;;;;;;21.98;15.05;;;;;;;1.02;58.47;95042.44;4973553;28;20529;-73
2023/02/14 08:20:56;;;;;;;20.90;14.82;;;;;;;0.90;58.52;95041.59;4975086;28;20050;-74
2023/02/14 08:23:21;;;;;;;20.95;13.10;;;;;;;0.96;58.82;95057.22;4976710;28;20039;-73
2023/02/14 08:25:48;;;;;;;22.13;13.55;;;;;;;0.84;59.15;95032.03;4977431;28;20030;-75
2023/02/14 08:28:17;;;;;;;19.10;12.90;;;;;;;0.98;59.17;95065.69;4973505;28;20597;-74
2023/02/14 08:30:44;;;;;;;22.10;13.93;;;;;;;0.95;59.50;95070.53;4978368;28;20030;-73
2023/02/14 08:33:10;;;;;;;18.98;12.15;;;;;;;0.79;59.98;95066.72;4975414;28;20133;-75
2023/02/14 08:35:35;;;;;;;28.40;16.80;;;;;;;0.66;60.65;95036.28;4978727;28;20035;-74
2023/02/14 08:38:01;;;;;;;29.15;18.83;;;;;;;0.66;61.05;95014.53;4976765;28;20031;-73
2023/02/14 08:40:27;;;;;;;32.08;17.83;;;;;;;0.85;61.32;95044.88;4974128;28;20117;-74
2023/02/14 08:42:52;;;;;;;26.70;17.17;;;;;;;0.52;61.56;94992.97;4976360;28;20029;-72
2023/02/14 08:45:21;;;;;;;27.98;17.38;;;;;;;0.82;62.41;95039.31;4974421;28;20038;-74
2023/02/14 08:47:46;;;;;;;30.30;17.85;;;;;;;0.71;62.65;95044.25;4976090;28;20044;-73
2023/02/14 08:50:16;;;;;;;27.20;17.48;;;;;;;0.72;63.33;95072.06;4973425;28;20030;-76
2023/02/14 08:52:42;;;;;;;28.67;16.42;;;;;;;0.66;63.93;95067.69;4975617;28;20126;-75
2023/02/14 08:55:08;;;;;;;27.85;17.10;;;;;;;0.62;64.50;95056.06;4974517;28;20056;-74
2023/02/14 08:57:34;;;;;;;32.53;18.42;;;;;;;0.74;64.09;95070.00;4975581;28;20021;-74
2023/02/14 08:59:59;;;;;;;26.73;16.02;;;;;;;0.29;64.85;95013.81;4973869;28;20553;-73
2023/02/14 09:02:25;;;;;;;27.15;17.27;;;;;;;0.49;65.74;95066.72;4975350;28;20041;-75
2023/02/14 09:04:50;;;;;;;30.05;16.40;;;;;;;0.51;65.67;95053.38;4975656;28;20064;-74
2023/02/14 09:07:16;;;;;;;30.08;16.70;;;;;;;0.36;66.28;95051.13;4973543;28;20030;-75
2023/02/14 09:09:41;;;;;;;29.08;17.48;;;;;;;0.25;67.14;95044.81;4977423;28;20546;-75
2023/02/14 09:12:09;;;;;;;28.20;17.50;;;;;;;0.45;67.03;95059.53;4977547;28;20038;-75
2023/02/14 09:14:36;;;;;;;31.83;18.42;;;;;;;0.44;66.47;95037.78;4975006;28;20046;-73
2023/02/14 09:17:04;;;;;;;28.17;17.23;;;;;;;0.52;66.04;95031.44;4979450;28;20038;-74
2023/02/14 09:19:31;;;;;;;31.60;18.70;;;;;;;0.71;65.75;95049.50;4975327;28;20034;-76
2023/02/14 09:21:56;;;;;;;24.48;16.85;;;;;;;0.76;65.46;95035.75;4977144;28;20061;-74
2023/02/14 09:24:22;;;;;;;31.25;17.83;;;;;;;0.83;64.89;95031.22;4976082;28;20188;-75
2023/02/14 09:26:47;;;;;;;28.65;17.52;;;;;;;0.87;64.70;95034.19;4977196;28;20041;-76
2023/02/14 09:29:14;;;;;;;23.88;15.05;;;;;;;0.89;63.92;95035.56;4977776;28;20303;-74
2023/02/14 09:31:40;;;;;;;23.17;15.27;;;;;;;0.73;63.85;95042.25;4974584;28;20626;-73
2023/02/14 09:34:05;;;;;;;24.25;13.73;;;;;;;0.34;65.11;95025.22;4976465;28;20030;-73
2023/02/14 09:39:14;;;;;;;27.08;14.82;;;;;;;0.50;64.50;95021.16;4977689;28;20165;-74
2023/02/14 09:42:02;;;;;;;23.48;15.98;;;;;;;0.65;63.61;95047.75;4975929;28;20042;-74
2023/02/14 09:44:33;;;;;;;24.92;15.68;;;;;;;0.51;63.72;95038.47;4977287;28;20038;-75
2023/02/14 09:47:31;;;;;;;25.20;14.85;;;;;;;0.63;63.52;95036.72;4965783;28;20725;-74
2023/02/14 09:49:57;;;;;;;27.05;16.52;;;;;;;0.63;62.97;95036.72;4975916;28;20026;-74
2023/02/14 09:52:27;;;;;;;26.27;16.15;;;;;;;0.62;63.03;95040.34;4971608;28;20640;-72
2023/02/14 09:54:56;;;;;;;27.33;16.55;;;;;;;0.53;63.44;95020.75;4976221;28;20072;-74
2023/02/14 09:57:40;;;;;;;28.63;16.15;;;;;;;0.48;63.71;95025.84;4971700;28;20593;-74
2023/02/14 10:00:36;;;;;;;28.10;15.40;;;;;;;0.50;63.96;95033.44;4973891;28;20532;-73
2023/02/14 10:03:35;;;;;;;31.23;17.30;;;;;;;0.33;64.29;95025.41;4970180;28;20647;-74
2023/02/14 10:06:33;;;;;;;29.33;16.27;;;;;;;0.37;63.99;95010.88;4971187;28;20415;-73
2023/02/14 10:09:31;;;;;;;32.35;16.98;;;;;;;0.46;63.57;95014.78;4971503;28;20043;-74
2023/02/14 10:11:58;;;;;;;26.80;15.48;;;;;;;0.45;62.86;94987.00;4973385;28;20104;-73
2023/02/14 10:14:29;;;;;;;26.15;15.27;;;;;;;0.76;62.00;95015.59;4972187;28;20078;-75
2023/02/14 10:17:02;;;;;;;22.80;14.13;;;;;;;0.53;61.55;94978.06;4974332;28;20521;-73
2023/02/14 10:19:37;;;;;;;22.42;14.50;;;;;;;0.60;61.91;95000.50;4974637;28;20133;-72
2023/02/14 10:22:09;;;;;;;23.55;13.18;;;;;;;0.78;60.86;95000.47;4971752;28;20133;-74
2023/02/14 10:24:36;;;;;;;19.33;12.52;;;;;;;0.78;61.08;95008.31;4975068;28;20037;-72
2023/02/14 10:27:13;;;;;;;22.15;13.35;;;;;;;0.52;61.59;94976.44;4974120;28;20038;-73
2023/02/14 10:29:40;;;;;;;22.38;14.40;;;;;;;0.74;61.64;94996.66;4964353;28;20663;-74
2023/02/14 10:32:13;;;;;;;24.92;14.27;;;;;;;0.62;61.20;94977.53;4973032;28;20069;-73
2023/02/14 10:34:48;;;;;;;22.13;13.27;;;;;;;0.83;60.90;95004.22;4978872;28;20051;-73
2023/02/14 10:37:23;;;;;;;18.70;12.30;;;;;;;0.69;61.35;95003.63;4975102;28;20042;-73
2023/02/14 10:40:22;;;;;;;26.30;14.13;;;;;;;0.74;61.20;95001.13;4975585;28;20518;-72
2023/02/14 10:43:22;;;;;;;18.25;12.30;;;;;;;0.69;61.08;94998.38;4978821;28;20046;-73
2023/02/14 10:45:51;;;;;;;22.73;13.27;;;;;;;0.60;61.23;94997.88;4939625;28;20065;-74
2023/02/14 10:48:28;;;;;;;18.08;11.55;;;;;;;0.69;60.88;95004.41;4977793;28;20608;-72
2023/02/14 10:50:56;;;;;;;20.25;12.43;;;;;;;0.51;60.80;95006.25;4979661;28;20030;-74
2023/02/14 10:53:30;;;;;;;18.90;11.45;;;;;;;0.52;60.74;95008.66;4977676;28;20038;-71
2023/02/14 10:56:01;;;;;;;16.63;12.13;;;;;;;0.40;60.49;94994.72;4967600;28;20263;-72
2023/02/14 10:58:31;;;;;;;19.00;11.70;;;;;;;0.44;61.34;94998.50;4975814;28;20037;-72
2023/02/14 11:00:59;;;;;;;17.98;11.88;;;;;;;0.35;61.56;94995.38;4978467;28;20034;-72
2023/02/14 11:03:26;;;;;;;20.42;12.10;;;;;;;0.30;62.06;94987.38;4964659;28;20048;-73
2023/02/14 11:05:51;;;;;;;16.48;11.65;;;;;;;0.08;62.10;94969.75;4979516;28;20598;-73
2023/02/14 11:08:33;;;;;;;18.05;12.63;;;;;;;0.32;62.20;94990.59;4978643;28;20092;-74
2023/02/14 11:11:36;;;;;;;19.17;11.75;;;;;;;0.20;61.63;94958.31;4977222;28;20038;-74
2023/02/14 11:14:20;;;;;;;19.15;12.40;;;;;;;0.47;60.67;94995.44;4977035;28;20054;-71
2023/02/14 11:16:50;;;;;;;18.63;11.52;;;;;;;0.09;61.46;94966.94;4976432;28;20490;-72
2023/02/14 11:19:18;;;;;;;19.58;12.50;;;;;;;0.32;61.87;94997.66;4973968;28;20032;-71
2023/02/14 11:21:45;;;;;;;14.95;11.63;;;;;;;0.22;61.81;94989.50;4975998;28;20029;-74
2023/02/14 11:24:35;;;;;;;17.23;11.18;;;;;;;0.04;61.72;94968.63;4975725;28;20261;-75
2023/02/14 11:27:09;;;;;;;16.65;12.35;;;;;;;0.16;61.88;94982.53;4975646;28;20057;-73
2023/02/14 11:29:43;;;;;;;15.90;10.88;;;;;;;0.30;61.43;94989.22;4977503;28;20046;-74
2023/02/14 11:32:21;;;;;;;17.52;11.35;;;;;;;0.22;61.75;94986.91;4974202;28;20046;-72
2023/02/14 11:34:58;;;;;;;21.30;11.70;;;;;;;-0.12;61.95;94921.09;4978782;28;20046;-74
2023/02/14 11:37:31;;;;;;;16.63;11.45;;;;;;;0.18;61.77;94965.63;4976654;28;20053;-71
2023/02/14 11:39:59;;;;;;;20.13;12.55;;;;;;;0.32;61.48;94971.47;4978970;28;20153;-75
2023/02/14 11:42:46;;;;;;;17.33;12.48;;;;;;;0.24;61.31;94959.50;4977956;28;20379;-74
2023/02/14 11:45:33;;;;;;;17.30;12.50;;;;;;;0.19;61.48;94961.19;4972632;28;20042;-77
2023/02/14 11:48:24;;;;;;;16.95;11.32;;;;;;;0.12;61.54;94950.00;4975497;28;20449;-76
2023/02/14 11:51:05;;;;;;;13.82;9.75;;;;;;;0.15;61.46;94952.19;4977554;28;20045;-75
2023/02/14 11:53:59;;;;;;;20.15;12.45;;;;;;;0.01;61.18;94921.97;4976012;28;20349;-75